Terminal Aerodrome Forecast
Issued by NWS Sioux Falls, SD

Home | Current Version | Previous Version | Text Only | Print | Product List | Glossary Off
Versions: 1 2 3 4 5 6 7 8 9 10 11 12 13 14 15 16 17 18 19

863
FTUS43 KFSD 260129 AAB
TAFFSD
TAF AMD
KFSD 260129Z 2601/2624 07010KT 4SM BR OVC004
     FM260600 07005KT 4SM BR OVC003
      TEMPO 2611/2614 2SM BR
     FM261500 04005KT P6SM OVC003
     FM261700 03005KT P6SM OVC008
     FM262000 01006KT P6SM OVC015=

USA.gov is the U.S. government's official web portal to all federal, state and local government web resources and services.